sensor_id;sensor_type;location;lat;lon;timestamp;P1;durP1;ratioP1;P2;durP2;ratioP2
29570;SDS011;16814;52.118;11.436;2023-12-20T00:00:41;4.17;;;3.27;;
29570;SDS011;16814;52.118;11.436;2023-12-20T00:03:08;3.20;;;2.80;;
29570;SDS011;16814;52.118;11.436;2023-12-20T00:05:34;3.58;;;3.10;;
29570;SDS011;16814;52.118;11.436;2023-12-20T00:08:01;6.43;;;3.28;;
29570;SDS011;16814;52.118;11.436;2023-12-20T00:10:28;4.13;;;3.35;;
29570;SDS011;16814;52.118;11.436;2023-12-20T00:12:58;3.78;;;3.35;;
29570;SDS011;16814;52.118;11.436;2023-12-20T00:15:24;3.80;;;3.40;;
29570;SDS011;16814;52.118;11.436;2023-12-20T00:17:53;4.97;;;3.67;;
29570;SDS011;16814;52.118;11.436;2023-12-20T00:20:21;4.07;;;3.40;;
29570;SDS011;16814;52.118;11.436;2023-12-20T00:22:49;4.57;;;3.45;;
29570;SDS011;16814;52.118;11.436;2023-12-20T00:25:14;4.07;;;3.60;;
29570;SDS011;16814;52.118;11.436;2023-12-20T00:27:40;4.10;;;3.50;;
29570;SDS011;16814;52.118;11.436;2023-12-20T00:30:07;4.07;;;3.23;;
29570;SDS011;16814;52.118;11.436;2023-12-20T00:32:36;4.13;;;3.38;;
29570;SDS011;16814;52.118;11.436;2023-12-20T00:35:03;3.92;;;3.50;;
29570;SDS011;16814;52.118;11.436;2023-12-20T00:37:30;4.90;;;3.40;;
29570;SDS011;16814;52.118;11.436;2023-12-20T00:39:55;4.40;;;3.35;;
29570;SDS011;16814;52.118;11.436;2023-12-20T00:42:21;4.40;;;3.67;;
29570;SDS011;16814;52.118;11.436;2023-12-20T00:44:47;3.77;;;3.37;;
29570;SDS011;16814;52.118;11.436;2023-12-20T00:47:13;3.85;;;3.45;;
29570;SDS011;16814;52.118;11.436;2023-12-20T00:49:38;3.60;;;3.10;;
29570;SDS011;16814;52.118;11.436;2023-12-20T00:52:05;4.68;;;3.33;;
29570;SDS011;16814;52.118;11.436;2023-12-20T00:54:33;3.55;;;3.25;;
29570;SDS011;16814;52.118;11.436;2023-12-20T00:56:59;3.17;;;2.85;;
29570;SDS011;16814;52.118;11.436;2023-12-20T00:59:25;3.88;;;3.05;;
29570;SDS011;16814;52.118;11.436;2023-12-20T01:01:50;3.63;;;3.17;;
29570;SDS011;16814;52.118;11.436;2023-12-20T01:04:17;4.38;;;3.20;;
29570;SDS011;16814;52.118;11.436;2023-12-20T01:06:44;4.47;;;3.28;;
29570;SDS011;16814;52.118;11.436;2023-12-20T01:09:10;4.45;;;3.30;;
29570;SDS011;16814;52.118;11.436;2023-12-20T01:11:37;4.17;;;3.53;;
29570;SDS011;16814;52.118;11.436;2023-12-20T01:14:03;5.90;;;3.65;;
29570;SDS011;16814;52.118;11.436;2023-12-20T01:16:30;5.10;;;4.30;;
29570;SDS011;16814;52.118;11.436;2023-12-20T01:18:58;5.50;;;4.50;;
29570;SDS011;16814;52.118;11.436;2023-12-20T01:21:23;4.55;;;4.00;;
29570;SDS011;16814;52.118;11.436;2023-12-20T01:23:49;4.90;;;4.27;;
29570;SDS011;16814;52.118;11.436;2023-12-20T01:26:17;7.40;;;3.80;;
29570;SDS011;16814;52.118;11.436;2023-12-20T01:28:43;6.00;;;3.67;;
29570;SDS011;16814;52.118;11.436;2023-12-20T01:31:10;4.30;;;3.60;;
29570;SDS011;16814;52.118;11.436;2023-12-20T01:33:37;4.80;;;3.72;;
29570;SDS011;16814;52.118;11.436;2023-12-20T01:36:05;3.50;;;3.20;;
29570;SDS011;16814;52.118;11.436;2023-12-20T01:38:34;5.00;;;3.67;;
29570;SDS011;16814;52.118;11.436;2023-12-20T01:41:01;5.85;;;3.78;;
29570;SDS011;16814;52.118;11.436;2023-12-20T01:43:28;5.28;;;4.32;;
29570;SDS011;16814;52.118;11.436;2023-12-20T01:45:54;6.40;;;4.85;;
29570;SDS011;16814;52.118;11.436;2023-12-20T01:48:23;7.28;;;6.20;;
29570;SDS011;16814;52.118;11.436;2023-12-20T01:50:52;8.70;;;6.35;;
29570;SDS011;16814;52.118;11.436;2023-12-20T01:53:21;8.27;;;4.78;;
29570;SDS011;16814;52.118;11.436;2023-12-20T01:55:50;4.25;;;2.53;;
29570;SDS011;16814;52.118;11.436;2023-12-20T01:58:19;5.35;;;2.58;;
29570;SDS011;16814;52.118;11.436;2023-12-20T02:00:48;4.75;;;2.28;;
29570;SDS011;16814;52.118;11.436;2023-12-20T02:03:16;4.10;;;2.30;;
29570;SDS011;16814;52.118;11.436;2023-12-20T02:05:43;9.63;;;2.70;;
29570;SDS011;16814;52.118;11.436;2023-12-20T02:08:10;5.95;;;2.40;;
29570;SDS011;16814;52.118;11.436;2023-12-20T02:10:38;5.32;;;2.55;;
29570;SDS011;16814;52.118;11.436;2023-12-20T02:13:06;6.45;;;2.60;;
29570;SDS011;16814;52.118;11.436;2023-12-20T02:15:43;6.70;;;2.20;;
29570;SDS011;16814;52.118;11.436;2023-12-20T02:18:10;4.88;;;2.35;;
29570;SDS011;16814;52.118;11.436;2023-12-20T02:20:35;8.17;;;2.60;;
29570;SDS011;16814;52.118;11.436;2023-12-20T02:23:03;9.13;;;2.90;;
29570;SDS011;16814;52.118;11.436;2023-12-20T02:25:35;10.40;;;3.10;;
29570;SDS011;16814;52.118;11.436;2023-12-20T02:28:03;14.45;;;3.60;;
29570;SDS011;16814;52.118;11.436;2023-12-20T02:30:38;10.93;;;3.30;;
29570;SDS011;16814;52.118;11.436;2023-12-20T02:33:07;14.75;;;3.15;;
29570;SDS011;16814;52.118;11.436;2023-12-20T02:35:36;11.05;;;2.80;;
29570;SDS011;16814;52.118;11.436;2023-12-20T02:38:03;9.98;;;3.00;;
29570;SDS011;16814;52.118;11.436;2023-12-20T02:40:30;11.75;;;3.05;;
29570;SDS011;16814;52.118;11.436;2023-12-20T02:42:56;11.13;;;2.70;;
29570;SDS011;16814;52.118;11.436;2023-12-20T02:45:24;9.68;;;2.67;;
29570;SDS011;16814;52.118;11.436;2023-12-20T02:47:51;12.43;;;2.78;;
29570;SDS011;16814;52.118;11.436;2023-12-20T02:50:18;10.02;;;2.70;;
29570;SDS011;16814;52.118;11.436;2023-12-20T02:52:50;9.43;;;3.30;;
29570;SDS011;16814;52.118;11.436;2023-12-20T02:55:16;14.73;;;3.42;;
29570;SDS011;16814;52.118;11.436;2023-12-20T02:57:44;13.15;;;3.50;;
29570;SDS011;16814;52.118;11.436;2023-12-20T03:00:10;11.70;;;3.70;;
29570;SDS011;16814;52.118;11.436;2023-12-20T03:02:37;10.75;;;4.03;;
29570;SDS011;16814;52.118;11.436;2023-12-20T03:05:03;14.43;;;3.75;;
29570;SDS011;16814;52.118;11.436;2023-12-20T03:07:30;14.93;;;4.33;;
29570;SDS011;16814;52.118;11.436;2023-12-20T03:09:55;14.77;;;4.22;;
29570;SDS011;16814;52.118;11.436;2023-12-20T03:12:21;15.87;;;4.27;;
29570;SDS011;16814;52.118;11.436;2023-12-20T03:14:47;15.33;;;3.70;;
29570;SDS011;16814;52.118;11.436;2023-12-20T03:17:14;14.82;;;3.85;;
29570;SDS011;16814;52.118;11.436;2023-12-20T03:19:42;15.32;;;4.28;;
29570;SDS011;16814;52.118;11.436;2023-12-20T03:22:10;18.50;;;3.97;;
29570;SDS011;16814;52.118;11.436;2023-12-20T03:24:35;14.38;;;4.30;;
29570;SDS011;16814;52.118;11.436;2023-12-20T03:27:01;16.63;;;4.37;;
29570;SDS011;16814;52.118;11.436;2023-12-20T03:29:28;20.20;;;4.20;;
29570;SDS011;16814;52.118;11.436;2023-12-20T03:31:53;17.83;;;4.65;;
29570;SDS011;16814;52.118;11.436;2023-12-20T03:34:22;13.20;;;3.75;;
29570;SDS011;16814;52.118;11.436;2023-12-20T03:36:47;17.83;;;4.03;;
29570;SDS011;16814;52.118;11.436;2023-12-20T03:39:15;18.38;;;3.70;;
29570;SDS011;16814;52.118;11.436;2023-12-20T03:41:40;20.00;;;4.00;;
29570;SDS011;16814;52.118;11.436;2023-12-20T03:44:08;14.90;;;3.75;;
29570;SDS011;16814;52.118;11.436;2023-12-20T03:46:35;18.77;;;4.20;;
29570;SDS011;16814;52.118;11.436;2023-12-20T03:49:02;17.17;;;3.53;;
29570;SDS011;16814;52.118;11.436;2023-12-20T03:51:29;14.27;;;3.20;;
29570;SDS011;16814;52.118;11.436;2023-12-20T03:53:56;15.82;;;3.53;;
29570;SDS011;16814;52.118;11.436;2023-12-20T03:56:23;14.07;;;3.40;;
29570;SDS011;16814;52.118;11.436;2023-12-20T03:58:48;15.40;;;3.30;;
29570;SDS011;16814;52.118;11.436;2023-12-20T04:01:15;17.53;;;3.50;;
29570;SDS011;16814;52.118;11.436;2023-12-20T04:03:42;15.20;;;3.50;;
29570;SDS011;16814;52.118;11.436;2023-12-20T04:06:08;16.02;;;3.30;;
29570;SDS011;16814;52.118;11.436;2023-12-20T04:08:41;18.40;;;4.40;;
29570;SDS011;16814;52.118;11.436;2023-12-20T04:11:08;17.85;;;3.72;;
29570;SDS011;16814;52.118;11.436;2023-12-20T04:13:36;11.50;;;3.50;;
29570;SDS011;16814;52.118;11.436;2023-12-20T04:16:03;17.57;;;3.97;;
29570;SDS011;16814;52.118;11.436;2023-12-20T04:18:28;17.35;;;3.20;;
29570;SDS011;16814;52.118;11.436;2023-12-20T04:20:56;12.60;;;3.25;;
29570;SDS011;16814;52.118;11.436;2023-12-20T04:23:23;12.10;;;2.57;;
29570;SDS011;16814;52.118;11.436;2023-12-20T04:25:50;16.20;;;3.38;;
29570;SDS011;16814;52.118;11.436;2023-12-20T04:28:17;15.57;;;2.83;;
29570;SDS011;16814;52.118;11.436;2023-12-20T04:30:44;18.05;;;3.05;;
29570;SDS011;16814;52.118;11.436;2023-12-20T04:33:11;12.80;;;2.67;;
29570;SDS011;16814;52.118;11.436;2023-12-20T04:35:36;10.52;;;2.33;;
29570;SDS011;16814;52.118;11.436;2023-12-20T04:38:03;12.38;;;2.40;;
29570;SDS011;16814;52.118;11.436;2023-12-20T04:40:29;13.88;;;2.40;;
29570;SDS011;16814;52.118;11.436;2023-12-20T04:42:56;14.35;;;2.17;;
29570;SDS011;16814;52.118;11.436;2023-12-20T04:45:23;13.73;;;2.65;;
29570;SDS011;16814;52.118;11.436;2023-12-20T04:47:51;15.15;;;2.72;;
29570;SDS011;16814;52.118;11.436;2023-12-20T04:50:17;11.50;;;2.00;;
29570;SDS011;16814;52.118;11.436;2023-12-20T04:52:44;14.60;;;2.25;;
29570;SDS011;16814;52.118;11.436;2023-12-20T04:55:12;21.73;;;2.70;;
29570;SDS011;16814;52.118;11.436;2023-12-20T04:57:39;16.90;;;2.40;;
29570;SDS011;16814;52.118;11.436;2023-12-20T05:00:09;17.80;;;2.90;;
29570;SDS011;16814;52.118;11.436;2023-12-20T05:02:36;12.43;;;2.27;;
29570;SDS011;16814;52.118;11.436;2023-12-20T05:05:03;13.13;;;2.30;;
29570;SDS011;16814;52.118;11.436;2023-12-20T05:07:30;13.83;;;2.33;;
29570;SDS011;16814;52.118;11.436;2023-12-20T05:09:56;14.55;;;2.67;;
29570;SDS011;16814;52.118;11.436;2023-12-20T05:12:23;12.55;;;2.28;;
29570;SDS011;16814;52.118;11.436;2023-12-20T05:14:48;13.77;;;2.22;;
29570;SDS011;16814;52.118;11.436;2023-12-20T05:17:15;15.13;;;2.97;;
29570;SDS011;16814;52.118;11.436;2023-12-20T05:19:42;18.10;;;2.35;;
29570;SDS011;16814;52.118;11.436;2023-12-20T05:22:09;13.37;;;2.10;;
29570;SDS011;16814;52.118;11.436;2023-12-20T05:24:35;10.73;;;2.20;;
29570;SDS011;16814;52.118;11.436;2023-12-20T05:27:01;12.80;;;2.17;;
29570;SDS011;16814;52.118;11.436;2023-12-20T05:29:27;20.02;;;2.80;;
29570;SDS011;16814;52.118;11.436;2023-12-20T05:31:54;12.97;;;2.23;;
29570;SDS011;16814;52.118;11.436;2023-12-20T05:34:23;13.00;;;2.40;;
29570;SDS011;16814;52.118;11.436;2023-12-20T05:36:50;14.40;;;2.63;;
29570;SDS011;16814;52.118;11.436;2023-12-20T05:39:16;8.83;;;1.97;;
29570;SDS011;16814;52.118;11.436;2023-12-20T05:41:42;15.55;;;2.60;;
29570;SDS011;16814;52.118;11.436;2023-12-20T05:44:10;13.20;;;2.65;;
29570;SDS011;16814;52.118;11.436;2023-12-20T05:46:35;14.85;;;2.53;;
29570;SDS011;16814;52.118;11.436;2023-12-20T05:49:03;13.23;;;2.15;;
29570;SDS011;16814;52.118;11.436;2023-12-20T05:51:29;14.57;;;2.70;;
29570;SDS011;16814;52.118;11.436;2023-12-20T05:53:56;14.30;;;2.33;;
29570;SDS011;16814;52.118;11.436;2023-12-20T05:56:24;11.13;;;2.50;;
29570;SDS011;16814;52.118;11.436;2023-12-20T05:58:51;10.10;;;1.98;;
29570;SDS011;16814;52.118;11.436;2023-12-20T06:01:18;10.73;;;2.63;;
29570;SDS011;16814;52.118;11.436;2023-12-20T06:03:45;12.85;;;2.40;;
29570;SDS011;16814;52.118;11.436;2023-12-20T06:06:12;13.15;;;1.92;;
29570;SDS011;16814;52.118;11.436;2023-12-20T06:08:40;11.50;;;2.47;;
29570;SDS011;16814;52.118;11.436;2023-12-20T06:11:10;13.38;;;1.95;;
29570;SDS011;16814;52.118;11.436;2023-12-20T06:13:37;8.25;;;1.83;;
29570;SDS011;16814;52.118;11.436;2023-12-20T06:16:05;11.85;;;2.03;;
29570;SDS011;16814;52.118;11.436;2023-12-20T06:18:34;10.07;;;2.03;;
29570;SDS011;16814;52.118;11.436;2023-12-20T06:21:03;9.60;;;2.15;;
29570;SDS011;16814;52.118;11.436;2023-12-20T06:23:32;9.77;;;1.80;;
29570;SDS011;16814;52.118;11.436;2023-12-20T06:26:00;15.10;;;2.40;;
29570;SDS011;16814;52.118;11.436;2023-12-20T06:28:27;9.40;;;1.50;;
29570;SDS011;16814;52.118;11.436;2023-12-20T06:30:53;10.23;;;1.70;;
29570;SDS011;16814;52.118;11.436;2023-12-20T06:33:26;9.88;;;1.85;;
29570;SDS011;16814;52.118;11.436;2023-12-20T06:35:54;9.93;;;1.90;;
29570;SDS011;16814;52.118;11.436;2023-12-20T06:38:21;11.98;;;1.65;;
29570;SDS011;16814;52.118;11.436;2023-12-20T06:40:46;9.75;;;2.30;;
29570;SDS011;16814;52.118;11.436;2023-12-20T06:43:15;13.65;;;2.03;;
29570;SDS011;16814;52.118;11.436;2023-12-20T06:45:43;10.15;;;1.70;;
29570;SDS011;16814;52.118;11.436;2023-12-20T06:48:10;11.63;;;2.10;;
29570;SDS011;16814;52.118;11.436;2023-12-20T06:50:59;13.77;;;2.38;;
29570;SDS011;16814;52.118;11.436;2023-12-20T06:53:30;9.43;;;2.10;;
29570;SDS011;16814;52.118;11.436;2023-12-20T06:55:57;15.70;;;2.57;;
29570;SDS011;16814;52.118;11.436;2023-12-20T06:58:26;15.48;;;2.10;;
29570;SDS011;16814;52.118;11.436;2023-12-20T07:00:55;11.25;;;2.47;;
29570;SDS011;16814;52.118;11.436;2023-12-20T07:03:23;13.00;;;2.17;;
29570;SDS011;16814;52.118;11.436;2023-12-20T07:05:50;9.18;;;1.83;;
29570;SDS011;16814;52.118;11.436;2023-12-20T07:08:18;13.52;;;2.50;;
29570;SDS011;16814;52.118;11.436;2023-12-20T07:10:44;13.57;;;2.55;;
29570;SDS011;16814;52.118;11.436;2023-12-20T07:13:12;15.47;;;2.50;;
29570;SDS011;16814;52.118;11.436;2023-12-20T07:15:38;12.05;;;2.45;;
29570;SDS011;16814;52.118;11.436;2023-12-20T07:18:08;7.83;;;2.13;;
29570;SDS011;16814;52.118;11.436;2023-12-20T07:20:35;13.45;;;2.45;;
29570;SDS011;16814;52.118;11.436;2023-12-20T07:23:01;15.85;;;3.10;;
29570;SDS011;16814;52.118;11.436;2023-12-20T07:25:29;13.80;;;2.60;;
29570;SDS011;16814;52.118;11.436;2023-12-20T07:27:57;18.40;;;2.88;;
29570;SDS011;16814;52.118;11.436;2023-12-20T07:30:24;13.63;;;2.40;;
29570;SDS011;16814;52.118;11.436;2023-12-20T07:32:51;9.23;;;2.15;;
29570;SDS011;16814;52.118;11.436;2023-12-20T07:35:18;13.63;;;2.38;;
29570;SDS011;16814;52.118;11.436;2023-12-20T07:37:46;13.68;;;2.83;;
29570;SDS011;16814;52.118;11.436;2023-12-20T07:40:14;17.48;;;3.08;;
29570;SDS011;16814;52.118;11.436;2023-12-20T07:42:43;17.38;;;3.20;;
29570;SDS011;16814;52.118;11.436;2023-12-20T07:45:10;15.95;;;3.20;;
29570;SDS011;16814;52.118;11.436;2023-12-20T07:47:38;12.45;;;3.10;;
29570;SDS011;16814;52.118;11.436;2023-12-20T07:50:04;18.25;;;3.25;;
29570;SDS011;16814;52.118;11.436;2023-12-20T07:52:33;11.95;;;2.35;;
29570;SDS011;16814;52.118;11.436;2023-12-20T07:55:00;15.90;;;3.22;;
29570;SDS011;16814;52.118;11.436;2023-12-20T07:57:28;16.30;;;3.50;;
29570;SDS011;16814;52.118;11.436;2023-12-20T07:59:57;16.27;;;2.80;;
29570;SDS011;16814;52.118;11.436;2023-12-20T08:02:24;14.02;;;2.85;;
29570;SDS011;16814;52.118;11.436;2023-12-20T08:04:50;15.80;;;2.97;;
29570;SDS011;16814;52.118;11.436;2023-12-20T08:07:16;24.67;;;3.13;;
29570;SDS011;16814;52.118;11.436;2023-12-20T08:09:41;19.08;;;3.15;;
29570;SDS011;16814;52.118;11.436;2023-12-20T08:12:08;16.33;;;3.08;;
29570;SDS011;16814;52.118;11.436;2023-12-20T08:14:36;16.08;;;3.40;;
29570;SDS011;16814;52.118;11.436;2023-12-20T08:17:03;23.40;;;3.83;;
29570;SDS011;16814;52.118;11.436;2023-12-20T08:19:30;16.90;;;3.27;;
29570;SDS011;16814;52.118;11.436;2023-12-20T08:21:57;14.95;;;2.90;;
29570;SDS011;16814;52.118;11.436;2023-12-20T08:24:23;17.10;;;2.90;;
29570;SDS011;16814;52.118;11.436;2023-12-20T08:26:50;18.33;;;3.38;;
29570;SDS011;16814;52.118;11.436;2023-12-20T08:29:16;18.33;;;3.47;;
29570;SDS011;16814;52.118;11.436;2023-12-20T08:31:41;18.13;;;3.37;;
29570;SDS011;16814;52.118;11.436;2023-12-20T08:34:08;19.92;;;3.38;;
29570;SDS011;16814;52.118;11.436;2023-12-20T08:36:37;17.53;;;3.43;;
29570;SDS011;16814;52.118;11.436;2023-12-20T08:39:04;18.33;;;3.42;;
29570;SDS011;16814;52.118;11.436;2023-12-20T08:41:34;23.65;;;3.72;;
29570;SDS011;16814;52.118;11.436;2023-12-20T08:44:02;19.02;;;3.72;;
29570;SDS011;16814;52.118;11.436;2023-12-20T08:46:28;23.27;;;3.97;;
29570;SDS011;16814;52.118;11.436;2023-12-20T08:48:55;18.48;;;3.30;;
29570;SDS011;16814;52.118;11.436;2023-12-20T08:51:21;19.08;;;3.63;;
29570;SDS011;16814;52.118;11.436;2023-12-20T08:53:48;20.55;;;3.88;;
29570;SDS011;16814;52.118;11.436;2023-12-20T08:56:15;20.67;;;3.67;;
29570;SDS011;16814;52.118;11.436;2023-12-20T08:58:43;22.95;;;3.80;;
29570;SDS011;16814;52.118;11.436;2023-12-20T09:01:12;22.85;;;3.75;;
29570;SDS011;16814;52.118;11.436;2023-12-20T09:03:39;20.70;;;3.60;;
29570;SDS011;16814;52.118;11.436;2023-12-20T09:06:05;23.48;;;3.75;;
29570;SDS011;16814;52.118;11.436;2023-12-20T09:08:32;19.30;;;3.70;;
29570;SDS011;16814;52.118;11.436;2023-12-20T09:10:59;16.40;;;3.03;;
29570;SDS011;16814;52.118;11.436;2023-12-20T09:13:27;19.08;;;3.75;;
29570;SDS011;16814;52.118;11.436;2023-12-20T09:15:57;14.75;;;2.78;;
29570;SDS011;16814;52.118;11.436;2023-12-20T09:18:26;18.02;;;3.05;;
29570;SDS011;16814;52.118;11.436;2023-12-20T09:20:54;14.03;;;2.90;;
29570;SDS011;16814;52.118;11.436;2023-12-20T09:23:23;18.17;;;3.35;;
29570;SDS011;16814;52.118;11.436;2023-12-20T09:25:50;22.60;;;3.58;;
29570;SDS011;16814;52.118;11.436;2023-12-20T09:28:17;19.00;;;3.75;;
29570;SDS011;16814;52.118;11.436;2023-12-20T09:30:43;18.52;;;3.70;;
29570;SDS011;16814;52.118;11.436;2023-12-20T09:33:18;18.00;;;3.30;;
29570;SDS011;16814;52.118;11.436;2023-12-20T09:35:44;18.38;;;3.63;;
29570;SDS011;16814;52.118;11.436;2023-12-20T09:38:11;17.38;;;3.25;;
29570;SDS011;16814;52.118;11.436;2023-12-20T09:40:39;20.65;;;3.17;;
29570;SDS011;16814;52.118;11.436;2023-12-20T09:43:11;17.25;;;3.40;;
29570;SDS011;16814;52.118;11.436;2023-12-20T09:45:46;17.70;;;4.13;;
29570;SDS011;16814;52.118;11.436;2023-12-20T09:48:17;19.38;;;4.13;;
29570;SDS011;16814;52.118;11.436;2023-12-20T09:50:51;24.75;;;3.60;;
29570;SDS011;16814;52.118;11.436;2023-12-20T09:53:18;20.20;;;4.10;;
29570;SDS011;16814;52.118;11.436;2023-12-20T09:55:57;17.10;;;3.83;;
29570;SDS011;16814;52.118;11.436;2023-12-20T09:58:28;19.00;;;3.35;;
29570;SDS011;16814;52.118;11.436;2023-12-20T10:00:56;16.17;;;3.03;;
29570;SDS011;16814;52.118;11.436;2023-12-20T10:03:24;16.90;;;3.33;;
29570;SDS011;16814;52.118;11.436;2023-12-20T10:06:10;18.80;;;3.30;;
29570;SDS011;16814;52.118;11.436;2023-12-20T10:08:38;16.08;;;3.20;;
29570;SDS011;16814;52.118;11.436;2023-12-20T10:11:06;18.92;;;2.85;;
29570;SDS011;16814;52.118;11.436;2023-12-20T10:13:33;17.00;;;3.20;;
29570;SDS011;16814;52.118;11.436;2023-12-20T10:16:05;16.27;;;3.27;;
29570;SDS011;16814;52.118;11.436;2023-12-20T10:18:47;17.80;;;3.22;;
29570;SDS011;16814;52.118;11.436;2023-12-20T10:21:14;12.85;;;3.35;;
29570;SDS011;16814;52.118;11.436;2023-12-20T10:23:41;13.95;;;3.15;;
29570;SDS011;16814;52.118;11.436;2023-12-20T10:26:09;16.33;;;4.00;;
29570;SDS011;16814;52.118;11.436;2023-12-20T10:28:54;15.88;;;3.58;;
29570;SDS011;16814;52.118;11.436;2023-12-20T10:34:11;18.88;;;3.78;;
29570;SDS011;16814;52.118;11.436;2023-12-20T10:36:40;21.52;;;4.20;;
29570;SDS011;16814;52.118;11.436;2023-12-20T10:39:08;15.57;;;3.72;;
29570;SDS011;16814;52.118;11.436;2023-12-20T10:41:37;19.42;;;3.80;;
29570;SDS011;16814;52.118;11.436;2023-12-20T10:44:09;19.40;;;3.78;;
29570;SDS011;16814;52.118;11.436;2023-12-20T10:46:38;14.43;;;3.70;;
29570;SDS011;16814;52.118;11.436;2023-12-20T10:49:07;14.15;;;3.50;;
29570;SDS011;16814;52.118;11.436;2023-12-20T10:51:38;15.43;;;3.72;;
29570;SDS011;16814;52.118;11.436;2023-12-20T10:54:06;14.82;;;3.80;;
29570;SDS011;16814;52.118;11.436;2023-12-20T10:56:37;14.33;;;3.73;;
29570;SDS011;16814;52.118;11.436;2023-12-20T10:59:04;15.32;;;3.90;;
29570;SDS011;16814;52.118;11.436;2023-12-20T11:01:37;19.98;;;3.95;;
29570;SDS011;16814;52.118;11.436;2023-12-20T11:04:10;17.25;;;3.80;;
29570;SDS011;16814;52.118;11.436;2023-12-20T11:07:08;15.95;;;4.32;;
29570;SDS011;16814;52.118;11.436;2023-12-20T11:09:59;16.05;;;3.80;;
29570;SDS011;16814;52.118;11.436;2023-12-20T11:12:39;13.65;;;4.05;;
29570;SDS011;16814;52.118;11.436;2023-12-20T11:15:15;18.50;;;4.10;;
29570;SDS011;16814;52.118;11.436;2023-12-20T11:17:41;18.27;;;4.00;;
29570;SDS011;16814;52.118;11.436;2023-12-20T11:20:12;13.07;;;3.45;;
29570;SDS011;16814;52.118;11.436;2023-12-20T11:22:38;20.35;;;4.20;;
29570;SDS011;16814;52.118;11.436;2023-12-20T11:25:16;12.52;;;3.75;;
29570;SDS011;16814;52.118;11.436;2023-12-20T11:27:44;16.02;;;3.50;;
29570;SDS011;16814;52.118;11.436;2023-12-20T11:30:45;11.02;;;3.00;;
29570;SDS011;16814;52.118;11.436;2023-12-20T11:33:14;12.90;;;3.42;;
29570;SDS011;16814;52.118;11.436;2023-12-20T11:35:40;13.33;;;3.23;;
29570;SDS011;16814;52.118;11.436;2023-12-20T11:38:09;12.57;;;3.13;;
29570;SDS011;16814;52.118;11.436;2023-12-20T11:40:40;13.37;;;3.43;;
29570;SDS011;16814;52.118;11.436;2023-12-20T11:43:06;9.68;;;3.50;;
29570;SDS011;16814;52.118;11.436;2023-12-20T11:45:33;12.48;;;3.45;;
29570;SDS011;16814;52.118;11.436;2023-12-20T11:48:01;10.47;;;2.60;;
29570;SDS011;16814;52.118;11.436;2023-12-20T11:50:29;12.60;;;2.90;;
29570;SDS011;16814;52.118;11.436;2023-12-20T11:52:57;13.75;;;2.97;;
29570;SDS011;16814;52.118;11.436;2023-12-20T11:55:24;12.32;;;3.22;;
29570;SDS011;16814;52.118;11.436;2023-12-20T11:57:50;12.98;;;3.33;;
29570;SDS011;16814;52.118;11.436;2023-12-20T12:00:17;11.55;;;3.22;;
29570;SDS011;16814;52.118;11.436;2023-12-20T12:02:56;11.53;;;3.00;;
29570;SDS011;16814;52.118;11.436;2023-12-20T12:05:23;13.45;;;3.78;;
29570;SDS011;16814;52.118;11.436;2023-12-20T12:07:49;18.15;;;3.33;;
29570;SDS011;16814;52.118;11.436;2023-12-20T12:10:15;20.70;;;3.83;;
29570;SDS011;16814;52.118;11.436;2023-12-20T12:12:41;18.27;;;3.80;;
29570;SDS011;16814;52.118;11.436;2023-12-20T12:15:06;13.17;;;3.33;;
29570;SDS011;16814;52.118;11.436;2023-12-20T12:17:34;21.02;;;4.20;;
29570;SDS011;16814;52.118;11.436;2023-12-20T12:20:06;10.73;;;3.53;;
29570;SDS011;16814;52.118;11.436;2023-12-20T12:22:35;20.92;;;3.33;;
29570;SDS011;16814;52.118;11.436;2023-12-20T12:25:13;14.85;;;3.80;;
29570;SDS011;16814;52.118;11.436;2023-12-20T12:27:40;14.57;;;3.83;;
29570;SDS011;16814;52.118;11.436;2023-12-20T12:30:08;14.48;;;3.70;;
29570;SDS011;16814;52.118;11.436;2023-12-20T12:32:38;12.05;;;3.67;;
29570;SDS011;16814;52.118;11.436;2023-12-20T12:35:06;14.00;;;3.53;;
29570;SDS011;16814;52.118;11.436;2023-12-20T12:37:37;14.85;;;3.90;;
29570;SDS011;16814;52.118;11.436;2023-12-20T12:40:06;12.88;;;3.72;;
29570;SDS011;16814;52.118;11.436;2023-12-20T12:42:40;11.03;;;3.60;;
29570;SDS011;16814;52.118;11.436;2023-12-20T12:45:06;13.45;;;4.13;;
29570;SDS011;16814;52.118;11.436;2023-12-20T12:47:34;11.13;;;3.57;;
29570;SDS011;16814;52.118;11.436;2023-12-20T12:50:02;10.55;;;3.75;;
29570;SDS011;16814;52.118;11.436;2023-12-20T12:52:30;11.10;;;3.55;;
29570;SDS011;16814;52.118;11.436;2023-12-20T12:54:56;10.63;;;3.70;;
29570;SDS011;16814;52.118;11.436;2023-12-20T12:57:21;9.35;;;3.85;;
29570;SDS011;16814;52.118;11.436;2023-12-20T12:59:48;14.80;;;4.10;;
29570;SDS011;16814;52.118;11.436;2023-12-20T13:02:16;8.57;;;3.42;;
29570;SDS011;16814;52.118;11.436;2023-12-20T13:04:44;11.70;;;3.60;;
29570;SDS011;16814;52.118;11.436;2023-12-20T13:07:11;14.10;;;3.88;;
29570;SDS011;16814;52.118;11.436;2023-12-20T13:09:39;15.05;;;4.03;;
29570;SDS011;16814;52.118;11.436;2023-12-20T13:12:06;12.52;;;3.70;;
29570;SDS011;16814;52.118;11.436;2023-12-20T13:14:35;12.63;;;3.40;;
29570;SDS011;16814;52.118;11.436;2023-12-20T13:17:06;14.40;;;4.00;;
29570;SDS011;16814;52.118;11.436;2023-12-20T13:19:32;8.50;;;3.17;;
29570;SDS011;16814;52.118;11.436;2023-12-20T13:22:00;13.68;;;3.38;;
29570;SDS011;16814;52.118;11.436;2023-12-20T13:24:27;9.73;;;2.77;;
29570;SDS011;16814;52.118;11.436;2023-12-20T13:26:54;9.68;;;2.58;;
29570;SDS011;16814;52.118;11.436;2023-12-20T13:29:20;8.10;;;2.28;;
29570;SDS011;16814;52.118;11.436;2023-12-20T13:31:47;9.97;;;2.57;;
29570;SDS011;16814;52.118;11.436;2023-12-20T13:34:12;7.32;;;2.50;;
29570;SDS011;16814;52.118;11.436;2023-12-20T13:36:39;7.13;;;2.10;;
29570;SDS011;16814;52.118;11.436;2023-12-20T13:39:06;11.30;;;2.65;;
29570;SDS011;16814;52.118;11.436;2023-12-20T13:41:34;11.83;;;2.53;;
29570;SDS011;16814;52.118;11.436;2023-12-20T13:44:01;10.10;;;2.28;;
29570;SDS011;16814;52.118;11.436;2023-12-20T13:46:28;7.93;;;2.17;;
29570;SDS011;16814;52.118;11.436;2023-12-20T13:48:57;9.57;;;2.27;;
29570;SDS011;16814;52.118;11.436;2023-12-20T13:51:27;6.80;;;1.95;;
29570;SDS011;16814;52.118;11.436;2023-12-20T13:53:55;5.90;;;1.90;;
29570;SDS011;16814;52.118;11.436;2023-12-20T13:56:22;5.43;;;1.70;;
29570;SDS011;16814;52.118;11.436;2023-12-20T13:58:50;5.53;;;1.63;;
29570;SDS011;16814;52.118;11.436;2023-12-20T14:01:15;6.57;;;1.55;;
29570;SDS011;16814;52.118;11.436;2023-12-20T14:03:43;7.75;;;1.20;;
29570;SDS011;16814;52.118;11.436;2023-12-20T14:06:10;7.10;;;1.37;;
29570;SDS011;16814;52.118;11.436;2023-12-20T14:08:36;3.15;;;1.13;;
29570;SDS011;16814;52.118;11.436;2023-12-20T14:11:02;4.68;;;1.20;;
29570;SDS011;16814;52.118;11.436;2023-12-20T14:13:30;6.03;;;1.13;;
29570;SDS011;16814;52.118;11.436;2023-12-20T14:15:56;4.70;;;1.10;;
29570;SDS011;16814;52.118;11.436;2023-12-20T14:18:24;7.78;;;1.15;;
29570;SDS011;16814;52.118;11.436;2023-12-20T14:20:50;4.83;;;1.10;;
29570;SDS011;16814;52.118;11.436;2023-12-20T14:23:19;4.70;;;1.08;;
29570;SDS011;16814;52.118;11.436;2023-12-20T14:25:45;7.87;;;1.07;;
29570;SDS011;16814;52.118;11.436;2023-12-20T14:28:12;11.00;;;1.90;;
29570;SDS011;16814;52.118;11.436;2023-12-20T14:30:40;9.63;;;1.38;;
29570;SDS011;16814;52.118;11.436;2023-12-20T14:33:06;8.75;;;1.55;;